createdAt,value
2023-04-04T00:00:40.175Z,38.40
2023-04-04T00:05:41.842Z,38.30
2023-04-04T00:10:43.375Z,38.30
2023-04-04T00:15:44.867Z,38.20
2023-04-04T00:20:46.284Z,38.20
2023-04-04T00:25:47.679Z,38.20
2023-04-04T00:30:49.124Z,38.10
2023-04-04T00:35:50.544Z,38.10
2023-04-04T00:40:51.971Z,38.10
2023-04-04T00:45:53.410Z,38.10
2023-04-04T00:50:54.841Z,38.00
2023-04-04T00:55:56.259Z,38.00
2023-04-04T01:00:57.756Z,38.00
2023-04-04T01:05:59.159Z,38.00
2023-04-04T01:11:00.578Z,38.00
2023-04-04T01:16:02.006Z,37.90
2023-04-04T01:21:03.569Z,37.90
2023-04-04T01:26:04.998Z,37.80
2023-04-04T01:31:06.417Z,37.80
2023-04-04T01:36:07.901Z,37.80
2023-04-04T01:41:09.357Z,37.60
2023-04-04T01:46:10.929Z,37.70
2023-04-04T01:51:12.385Z,37.60
2023-04-04T01:56:13.797Z,37.50
2023-04-04T02:01:15.216Z,37.50
2023-04-04T02:06:16.612Z,37.50
2023-04-04T02:11:18.056Z,37.50
2023-04-04T02:16:19.573Z,38.10
2023-04-04T02:21:21.251Z,37.50
2023-04-04T02:26:22.658Z,37.50
2023-04-04T02:31:24.140Z,37.40
2023-04-04T02:36:25.583Z,37.40
2023-04-04T02:41:26.973Z,37.40
2023-04-04T02:46:28.389Z,37.40
2023-04-04T02:51:29.814Z,37.40
2023-04-04T02:56:31.258Z,37.30
2023-04-04T03:01:32.824Z,37.30
2023-04-04T03:06:34.505Z,37.20
2023-04-04T03:11:35.945Z,37.20
2023-04-04T03:16:37.397Z,37.10
2023-04-04T03:21:38.844Z,37.20
2023-04-04T03:26:40.243Z,37.00
2023-04-04T03:31:41.719Z,37.10
2023-04-04T03:36:43.249Z,37.00
2023-04-04T03:41:44.649Z,37.00
2023-04-04T03:46:46.043Z,37.00
2023-04-04T03:51:47.458Z,37.00
2023-04-04T03:56:48.857Z,37.00
2023-04-04T04:01:50.249Z,36.90
2023-04-04T04:06:51.681Z,36.90
2023-04-04T04:11:53.097Z,36.90
2023-04-04T04:16:54.526Z,37.00
2023-04-04T04:21:55.923Z,36.90
2023-04-04T04:26:57.322Z,36.90
2023-04-04T04:31:58.856Z,37.50
2023-04-04T04:37:00.372Z,36.80
2023-04-04T04:42:01.768Z,37.00
2023-04-04T04:47:03.322Z,36.90
2023-04-04T04:52:04.818Z,36.80
2023-04-04T04:57:06.231Z,36.80
2023-04-04T05:02:07.770Z,36.80
2023-04-04T05:07:09.217Z,36.80
2023-04-04T05:12:10.637Z,36.70
2023-04-04T05:17:12.047Z,36.70
2023-04-04T05:22:13.466Z,36.70
2023-04-04T05:27:14.875Z,36.60
2023-04-04T05:32:16.282Z,36.60
2023-04-04T05:37:17.687Z,36.60
2023-04-04T05:42:22.132Z,37.10
2023-04-04T05:47:23.611Z,36.50
2023-04-04T05:52:25.021Z,36.60
2023-04-04T05:57:26.442Z,36.50
2023-04-04T06:02:27.994Z,36.60
2023-04-04T06:07:29.500Z,36.50
2023-04-04T06:12:30.977Z,36.50
2023-04-04T06:17:32.452Z,36.50
2023-04-04T06:22:33.891Z,36.50
2023-04-04T06:27:35.292Z,36.50
2023-04-04T06:32:36.730Z,36.50
2023-04-04T06:37:38.134Z,36.50
2023-04-04T06:42:39.549Z,36.50
2023-04-04T06:47:40.996Z,36.40
2023-04-04T06:52:42.412Z,36.40
2023-04-04T06:57:43.831Z,36.40
2023-04-04T07:02:45.327Z,36.40
2023-04-04T07:07:46.906Z,36.40
2023-04-04T07:12:48.382Z,36.40
2023-04-04T07:17:49.977Z,36.40
2023-04-04T07:22:51.408Z,36.50
2023-04-04T07:27:59.634Z,36.50
2023-04-04T07:33:07.372Z,36.30
2023-04-04T07:38:08.786Z,36.40
2023-04-04T07:43:10.236Z,36.40
2023-04-04T07:48:11.894Z,36.40
2023-04-04T07:53:13.364Z,36.30
2023-04-04T07:58:14.788Z,36.30
2023-04-04T08:03:16.304Z,36.30
2023-04-04T08:08:17.813Z,36.40
2023-04-04T08:13:19.225Z,36.20
2023-04-04T08:18:20.630Z,36.20
2023-04-04T08:23:22.040Z,36.20
2023-04-04T08:28:23.573Z,36.20
2023-04-04T08:33:34.203Z,36.20
2023-04-04T08:38:45.847Z,36.30
2023-04-04T08:43:47.319Z,36.20
2023-04-04T08:48:48.747Z,36.20
2023-04-04T08:53:50.254Z,36.30
2023-04-04T08:58:51.754Z,36.40
2023-04-04T09:03:53.186Z,37.20
2023-04-04T09:08:54.639Z,36.70
2023-04-04T09:13:56.145Z,36.60
2023-04-04T09:18:57.552Z,36.70
2023-04-04T09:23:59.013Z,36.70
2023-04-04T09:29:00.408Z,36.80
2023-04-04T09:34:01.826Z,36.90
2023-04-04T09:39:03.354Z,36.60
2023-04-04T09:44:04.940Z,37.00
2023-04-04T09:49:06.388Z,37.20
2023-04-04T09:54:12.904Z,37.30
2023-04-04T09:59:17.154Z,36.80
2023-04-04T10:04:18.719Z,36.80
2023-04-04T10:09:20.169Z,36.70
2023-04-04T10:14:21.633Z,36.70
2023-04-04T10:19:23.124Z,36.70
2023-04-04T10:24:24.664Z,36.60
2023-04-04T10:29:26.128Z,36.60
2023-04-04T10:34:27.613Z,36.70
2023-04-04T10:39:29.138Z,36.60
2023-04-04T10:44:30.769Z,36.70
2023-04-04T10:49:32.231Z,36.70
2023-04-04T10:54:33.753Z,36.60
2023-04-04T10:59:35.294Z,36.60
2023-04-04T11:04:36.881Z,36.60
2023-04-04T11:09:38.384Z,36.70
2023-04-04T11:14:39.812Z,37.20
2023-04-04T11:19:41.224Z,36.50
2023-04-04T11:24:42.642Z,36.60
2023-04-04T11:29:44.065Z,36.60
2023-04-04T11:34:45.589Z,36.60
2023-04-04T11:39:46.991Z,36.50
2023-04-04T11:44:48.402Z,36.60
2023-04-04T11:49:49.831Z,36.60
2023-04-04T11:54:51.239Z,36.60
2023-04-04T11:59:52.811Z,36.70
2023-04-04T12:04:54.364Z,36.70
2023-04-04T12:09:56.358Z,36.70
2023-04-04T12:15:10.422Z,36.60
2023-04-04T12:20:18.248Z,36.50
2023-04-04T12:25:19.681Z,36.60
2023-04-04T12:30:21.073Z,36.60
2023-04-04T12:35:22.518Z,36.60
2023-04-04T12:40:23.966Z,36.60
2023-04-04T12:45:25.405Z,36.60
2023-04-04T12:50:26.817Z,36.60
2023-04-04T12:55:28.225Z,36.60
2023-04-04T13:00:29.650Z,36.60
2023-04-04T13:05:31.061Z,36.60
2023-04-04T13:10:32.471Z,36.60
2023-04-04T13:15:33.934Z,36.50
2023-04-04T13:20:35.338Z,36.50
2023-04-04T13:25:36.735Z,36.50
2023-04-04T13:30:38.268Z,36.60
2023-04-04T13:35:39.873Z,36.60
2023-04-04T13:40:41.365Z,36.60
2023-04-04T13:45:42.807Z,36.60
2023-04-04T13:50:44.304Z,36.50
2023-04-04T13:56:01.303Z,36.50
2023-04-04T14:01:07.275Z,36.60
2023-04-04T14:06:10.790Z,36.60
2023-04-04T14:11:12.688Z,36.50
2023-04-04T14:16:14.151Z,36.60
2023-04-04T14:21:15.590Z,36.70
2023-04-04T14:26:17.014Z,36.60
2023-04-04T14:31:18.466Z,36.80
2023-04-04T14:36:20.958Z,36.70
2023-04-04T14:41:22.413Z,36.60
2023-04-04T14:46:23.839Z,36.70
2023-04-04T14:51:25.304Z,37.30
2023-04-04T14:56:26.800Z,37.20
2023-04-04T15:01:28.236Z,37.10
2023-04-04T15:06:29.688Z,36.90
2023-04-04T15:11:31.090Z,36.70
2023-04-04T15:16:32.595Z,36.60
2023-04-04T15:21:34.048Z,36.50
2023-04-04T15:26:35.537Z,36.10
2023-04-04T15:31:36.987Z,36.10
2023-04-04T15:36:38.465Z,36.70
2023-04-04T15:41:39.924Z,36.50
2023-04-04T15:46:41.325Z,36.90
2023-04-04T15:51:42.746Z,37.30
2023-04-04T15:56:44.179Z,37.40
2023-04-04T16:01:45.654Z,37.50
2023-04-04T16:06:47.140Z,37.60
2023-04-04T16:11:48.600Z,37.60
2023-04-04T16:16:50.013Z,37.70
2023-04-04T16:21:51.423Z,37.60
2023-04-04T16:26:52.995Z,37.40
2023-04-04T16:31:54.440Z,37.10
2023-04-04T16:36:55.925Z,36.90
2023-04-04T16:41:57.334Z,36.60
2023-04-04T16:46:58.846Z,36.60
2023-04-04T16:52:00.345Z,36.50
2023-04-04T16:57:01.854Z,36.50
2023-04-04T17:02:03.335Z,36.50
2023-04-04T17:07:04.778Z,37.10
2023-04-04T17:12:06.189Z,37.20
2023-04-04T17:17:07.653Z,37.10
2023-04-04T17:22:09.109Z,37.00
2023-04-04T17:27:10.522Z,38.00
2023-04-04T17:32:12.121Z,39.00
2023-04-04T17:37:13.657Z,38.70
2023-04-04T17:42:15.097Z,38.50
2023-04-04T17:47:16.573Z,38.30
2023-04-04T17:52:18.134Z,38.00
2023-04-04T17:57:19.787Z,37.90
2023-04-04T18:02:21.270Z,37.80
2023-04-04T18:07:22.742Z,37.70
2023-04-04T18:12:24.223Z,37.80
2023-04-04T18:17:25.654Z,38.00
2023-04-04T18:22:27.204Z,39.00
2023-04-04T18:27:28.642Z,39.40
2023-04-04T18:32:30.096Z,39.60
2023-04-04T18:37:31.621Z,39.20
2023-04-04T18:42:33.022Z,38.80
2023-04-04T18:47:34.487Z,38.50
2023-04-04T18:52:35.918Z,38.50
2023-04-04T18:57:37.363Z,38.50
2023-04-04T19:02:38.873Z,39.20
2023-04-04T19:07:40.315Z,38.80
2023-04-04T19:12:41.739Z,38.60
2023-04-04T19:17:43.202Z,38.50
2023-04-04T19:22:44.661Z,38.40
2023-04-04T19:27:46.061Z,38.40
2023-04-04T19:32:47.532Z,38.90
2023-04-04T19:37:48.955Z,38.30
2023-04-04T19:42:50.368Z,38.40
2023-04-04T19:47:51.945Z,38.30
2023-04-04T19:52:53.360Z,38.30
2023-04-04T19:57:54.800Z,38.30
2023-04-04T20:02:56.289Z,38.20
2023-04-04T20:07:57.741Z,38.20
2023-04-04T20:12:59.165Z,38.20
2023-04-04T20:18:00.631Z,38.20
2023-04-04T20:23:02.087Z,38.20
2023-04-04T20:28:03.565Z,38.20
2023-04-04T20:33:05.056Z,38.20
2023-04-04T20:38:06.515Z,38.20
2023-04-04T20:43:07.933Z,38.20
2023-04-04T20:48:09.375Z,38.20
2023-04-04T20:53:10.813Z,38.20
2023-04-04T20:58:12.245Z,38.20
2023-04-04T21:03:13.682Z,38.30
2023-04-04T21:08:15.117Z,38.20
2023-04-04T21:13:16.541Z,38.20
2023-04-04T21:18:17.946Z,38.20
2023-04-04T21:23:19.357Z,38.10
2023-04-04T21:28:20.753Z,38.20
2023-04-04T21:33:22.153Z,38.10
2023-04-04T21:38:23.565Z,38.20
2023-04-04T21:43:24.974Z,38.20
2023-04-04T21:48:26.374Z,38.00
2023-04-04T21:53:27.810Z,37.30
2023-04-04T21:58:29.211Z,37.20
2023-04-04T22:03:30.617Z,37.30
2023-04-04T22:08:32.166Z,37.30
2023-04-04T22:13:33.835Z,37.30
2023-04-04T22:18:35.453Z,37.30
2023-04-04T22:23:36.891Z,37.30
2023-04-04T22:28:38.300Z,37.10
2023-04-04T22:33:39.722Z,37.10
2023-04-04T22:38:41.116Z,37.00
2023-04-04T22:43:42.506Z,36.90
2023-04-04T22:48:43.906Z,37.00
2023-04-04T22:53:45.305Z,37.00
2023-04-04T22:58:46.797Z,36.80
2023-04-04T23:03:48.246Z,36.80
2023-04-04T23:08:49.660Z,36.70
2023-04-04T23:13:51.057Z,36.70
2023-04-04T23:18:52.482Z,36.50
2023-04-04T23:23:53.905Z,36.50
2023-04-04T23:28:55.307Z,36.50
2023-04-04T23:33:56.772Z,36.40
2023-04-04T23:38:58.184Z,36.30
2023-04-04T23:43:59.603Z,36.40
2023-04-04T23:49:01.055Z,36.40
2023-04-04T23:54:02.492Z,36.40
2023-04-04T23:59:03.948Z,36.40
